sensor_id;sensor_type;location;lat;lon;timestamp;P1;durP1;ratioP1;P2;durP2;ratioP2
3589;SDS011;1809;48.470;9.226;2023-04-07T00:01:35;11.77;;;7.83;;
3589;SDS011;1809;48.470;9.226;2023-04-07T00:04:01;9.60;;;7.57;;
3589;SDS011;1809;48.470;9.226;2023-04-07T00:06:26;13.27;;;7.53;;
3589;SDS011;1809;48.470;9.226;2023-04-07T00:08:52;15.93;;;8.63;;
3589;SDS011;1809;48.470;9.226;2023-04-07T00:11:18;19.60;;;8.77;;
3589;SDS011;1809;48.470;9.226;2023-04-07T00:13:43;14.13;;;8.97;;
3589;SDS011;1809;48.470;9.226;2023-04-07T00:16:09;12.20;;;8.67;;
3589;SDS011;1809;48.470;9.226;2023-04-07T00:18:34;13.30;;;8.47;;
3589;SDS011;1809;48.470;9.226;2023-04-07T00:21:00;12.43;;;7.93;;
3589;SDS011;1809;48.470;9.226;2023-04-07T00:23:25;13.10;;;9.40;;
3589;SDS011;1809;48.470;9.226;2023-04-07T00:25:51;13.20;;;8.30;;
3589;SDS011;1809;48.470;9.226;2023-04-07T00:28:16;12.47;;;8.00;;
3589;SDS011;1809;48.470;9.226;2023-04-07T00:30:42;11.67;;;7.43;;
3589;SDS011;1809;48.470;9.226;2023-04-07T00:33:07;17.13;;;9.70;;
3589;SDS011;1809;48.470;9.226;2023-04-07T00:35:32;13.40;;;8.50;;
3589;SDS011;1809;48.470;9.226;2023-04-07T00:37:57;12.20;;;8.30;;
3589;SDS011;1809;48.470;9.226;2023-04-07T00:40:23;14.20;;;8.40;;
3589;SDS011;1809;48.470;9.226;2023-04-07T00:42:48;12.47;;;9.07;;
3589;SDS011;1809;48.470;9.226;2023-04-07T00:45:14;10.73;;;8.10;;
3589;SDS011;1809;48.470;9.226;2023-04-07T00:47:39;9.80;;;7.93;;
3589;SDS011;1809;48.470;9.226;2023-04-07T00:50:05;12.87;;;8.90;;
3589;SDS011;1809;48.470;9.226;2023-04-07T00:52:31;16.67;;;9.80;;
3589;SDS011;1809;48.470;9.226;2023-04-07T00:54:57;15.00;;;10.30;;
3589;SDS011;1809;48.470;9.226;2023-04-07T00:57:23;19.47;;;10.17;;
3589;SDS011;1809;48.470;9.226;2023-04-07T00:59:49;14.53;;;9.73;;
3589;SDS011;1809;48.470;9.226;2023-04-07T01:02:17;15.73;;;9.80;;
3589;SDS011;1809;48.470;9.226;2023-04-07T01:07:43;14.87;;;10.27;;
3589;SDS011;1809;48.470;9.226;2023-04-07T01:10:18;16.30;;;9.40;;
3589;SDS011;1809;48.470;9.226;2023-04-07T01:12:53;11.67;;;9.00;;
3589;SDS011;1809;48.470;9.226;2023-04-07T01:15:27;15.27;;;9.73;;
3589;SDS011;1809;48.470;9.226;2023-04-07T01:17:58;16.03;;;9.50;;
3589;SDS011;1809;48.470;9.226;2023-04-07T01:20:33;15.20;;;9.30;;
3589;SDS011;1809;48.470;9.226;2023-04-07T01:23:03;12.17;;;8.83;;
3589;SDS011;1809;48.470;9.226;2023-04-07T01:25:37;13.07;;;9.33;;
3589;SDS011;1809;48.470;9.226;2023-04-07T01:28:29;13.77;;;9.70;;
3589;SDS011;1809;48.470;9.226;2023-04-07T01:31:05;19.33;;;9.63;;
3589;SDS011;1809;48.470;9.226;2023-04-07T01:33:38;9.80;;;7.53;;
3589;SDS011;1809;48.470;9.226;2023-04-07T01:36:07;17.10;;;9.80;;
3589;SDS011;1809;48.470;9.226;2023-04-07T01:38:34;11.80;;;8.80;;
3589;SDS011;1809;48.470;9.226;2023-04-07T01:41:02;14.57;;;9.23;;
3589;SDS011;1809;48.470;9.226;2023-04-07T01:43:29;12.30;;;8.57;;
3589;SDS011;1809;48.470;9.226;2023-04-07T01:45:55;17.83;;;9.93;;
3589;SDS011;1809;48.470;9.226;2023-04-07T01:48:22;14.50;;;8.90;;
3589;SDS011;1809;48.470;9.226;2023-04-07T01:50:48;15.40;;;8.80;;
3589;SDS011;1809;48.470;9.226;2023-04-07T01:53:15;15.17;;;9.60;;
3589;SDS011;1809;48.470;9.226;2023-04-07T01:55:42;14.60;;;9.47;;
3589;SDS011;1809;48.470;9.226;2023-04-07T01:58:11;13.40;;;9.30;;
3589;SDS011;1809;48.470;9.226;2023-04-07T02:00:37;14.53;;;9.67;;
3589;SDS011;1809;48.470;9.226;2023-04-07T02:03:14;14.67;;;9.83;;
3589;SDS011;1809;48.470;9.226;2023-04-07T02:05:52;12.87;;;9.30;;
3589;SDS011;1809;48.470;9.226;2023-04-07T02:08:25;16.37;;;10.37;;
3589;SDS011;1809;48.470;9.226;2023-04-07T02:10:53;13.10;;;8.97;;
3589;SDS011;1809;48.470;9.226;2023-04-07T02:13:21;16.47;;;9.20;;
3589;SDS011;1809;48.470;9.226;2023-04-07T02:15:48;13.00;;;9.87;;
3589;SDS011;1809;48.470;9.226;2023-04-07T02:18:14;14.10;;;10.33;;
3589;SDS011;1809;48.470;9.226;2023-04-07T02:20:42;14.70;;;9.33;;
3589;SDS011;1809;48.470;9.226;2023-04-07T02:23:10;14.57;;;9.50;;
3589;SDS011;1809;48.470;9.226;2023-04-07T02:25:37;13.50;;;8.83;;
3589;SDS011;1809;48.470;9.226;2023-04-07T02:28:03;12.33;;;9.03;;
3589;SDS011;1809;48.470;9.226;2023-04-07T02:30:30;16.07;;;9.50;;
3589;SDS011;1809;48.470;9.226;2023-04-07T02:32:56;14.23;;;9.03;;
3589;SDS011;1809;48.470;9.226;2023-04-07T02:35:22;13.23;;;8.67;;
3589;SDS011;1809;48.470;9.226;2023-04-07T02:37:48;12.03;;;8.87;;
3589;SDS011;1809;48.470;9.226;2023-04-07T02:40:14;15.00;;;10.20;;
3589;SDS011;1809;48.470;9.226;2023-04-07T02:42:40;17.30;;;8.80;;
3589;SDS011;1809;48.470;9.226;2023-04-07T02:45:06;18.80;;;10.23;;
3589;SDS011;1809;48.470;9.226;2023-04-07T02:47:32;12.40;;;8.83;;
3589;SDS011;1809;48.470;9.226;2023-04-07T02:49:59;13.90;;;9.67;;
3589;SDS011;1809;48.470;9.226;2023-04-07T02:52:24;12.83;;;8.33;;
3589;SDS011;1809;48.470;9.226;2023-04-07T02:54:50;21.37;;;10.73;;
3589;SDS011;1809;48.470;9.226;2023-04-07T02:57:16;12.80;;;9.23;;
3589;SDS011;1809;48.470;9.226;2023-04-07T02:59:41;11.77;;;8.87;;
3589;SDS011;1809;48.470;9.226;2023-04-07T03:02:07;16.50;;;9.70;;
3589;SDS011;1809;48.470;9.226;2023-04-07T03:04:32;12.60;;;9.03;;
3589;SDS011;1809;48.470;9.226;2023-04-07T03:06:58;13.70;;;9.90;;
3589;SDS011;1809;48.470;9.226;2023-04-07T03:09:24;13.70;;;9.60;;
3589;SDS011;1809;48.470;9.226;2023-04-07T03:11:50;13.33;;;9.30;;
3589;SDS011;1809;48.470;9.226;2023-04-07T03:14:16;13.10;;;8.97;;
3589;SDS011;1809;48.470;9.226;2023-04-07T03:16:41;14.13;;;9.13;;
3589;SDS011;1809;48.470;9.226;2023-04-07T03:19:07;16.33;;;9.10;;
3589;SDS011;1809;48.470;9.226;2023-04-07T03:21:33;12.90;;;8.73;;
3589;SDS011;1809;48.470;9.226;2023-04-07T03:23:58;21.07;;;9.30;;
3589;SDS011;1809;48.470;9.226;2023-04-07T03:26:23;13.50;;;9.10;;
3589;SDS011;1809;48.470;9.226;2023-04-07T03:28:49;18.10;;;9.23;;
3589;SDS011;1809;48.470;9.226;2023-04-07T03:31:14;15.73;;;9.03;;
3589;SDS011;1809;48.470;9.226;2023-04-07T03:33:39;12.43;;;8.33;;
3589;SDS011;1809;48.470;9.226;2023-04-07T03:36:05;11.93;;;8.37;;
3589;SDS011;1809;48.470;9.226;2023-04-07T03:38:31;11.80;;;8.50;;
3589;SDS011;1809;48.470;9.226;2023-04-07T03:40:56;13.20;;;9.60;;
3589;SDS011;1809;48.470;9.226;2023-04-07T03:43:22;13.40;;;8.23;;
3589;SDS011;1809;48.470;9.226;2023-04-07T03:45:47;14.33;;;10.20;;
3589;SDS011;1809;48.470;9.226;2023-04-07T03:48:12;14.87;;;9.70;;
3589;SDS011;1809;48.470;9.226;2023-04-07T03:50:38;14.50;;;8.97;;
3589;SDS011;1809;48.470;9.226;2023-04-07T03:53:04;14.23;;;8.87;;
3589;SDS011;1809;48.470;9.226;2023-04-07T03:55:30;12.90;;;8.20;;
3589;SDS011;1809;48.470;9.226;2023-04-07T03:57:56;12.33;;;8.70;;
3589;SDS011;1809;48.470;9.226;2023-04-07T04:00:21;17.00;;;9.83;;
3589;SDS011;1809;48.470;9.226;2023-04-07T04:02:47;13.73;;;9.90;;
3589;SDS011;1809;48.470;9.226;2023-04-07T04:05:12;17.17;;;9.57;;
3589;SDS011;1809;48.470;9.226;2023-04-07T04:07:37;15.13;;;10.03;;
3589;SDS011;1809;48.470;9.226;2023-04-07T04:10:03;14.70;;;9.37;;
3589;SDS011;1809;48.470;9.226;2023-04-07T04:12:28;15.53;;;10.67;;
3589;SDS011;1809;48.470;9.226;2023-04-07T04:14:54;11.90;;;8.63;;
3589;SDS011;1809;48.470;9.226;2023-04-07T04:17:19;13.17;;;8.80;;
3589;SDS011;1809;48.470;9.226;2023-04-07T04:19:44;14.17;;;8.83;;
3589;SDS011;1809;48.470;9.226;2023-04-07T04:22:10;12.53;;;9.53;;
3589;SDS011;1809;48.470;9.226;2023-04-07T04:24:35;12.30;;;8.80;;
3589;SDS011;1809;48.470;9.226;2023-04-07T04:27:00;10.40;;;8.10;;
3589;SDS011;1809;48.470;9.226;2023-04-07T04:29:26;13.07;;;9.77;;
3589;SDS011;1809;48.470;9.226;2023-04-07T04:31:51;13.43;;;9.23;;
3589;SDS011;1809;48.470;9.226;2023-04-07T04:34:17;12.00;;;9.17;;
3589;SDS011;1809;48.470;9.226;2023-04-07T04:36:42;17.13;;;9.97;;
3589;SDS011;1809;48.470;9.226;2023-04-07T04:39:07;15.30;;;10.00;;
3589;SDS011;1809;48.470;9.226;2023-04-07T04:41:33;20.20;;;10.60;;
3589;SDS011;1809;48.470;9.226;2023-04-07T04:43:58;14.13;;;8.83;;
3589;SDS011;1809;48.470;9.226;2023-04-07T04:46:24;14.57;;;9.57;;
3589;SDS011;1809;48.470;9.226;2023-04-07T04:48:49;13.83;;;9.50;;
3589;SDS011;1809;48.470;9.226;2023-04-07T04:51:18;13.90;;;9.10;;
3589;SDS011;1809;48.470;9.226;2023-04-07T04:53:43;12.10;;;8.57;;
3589;SDS011;1809;48.470;9.226;2023-04-07T04:56:09;15.00;;;9.37;;
3589;SDS011;1809;48.470;9.226;2023-04-07T04:58:34;14.00;;;9.97;;
3589;SDS011;1809;48.470;9.226;2023-04-07T05:01:00;16.10;;;10.50;;
3589;SDS011;1809;48.470;9.226;2023-04-07T05:03:26;15.43;;;10.40;;
3589;SDS011;1809;48.470;9.226;2023-04-07T05:05:52;11.67;;;8.00;;
3589;SDS011;1809;48.470;9.226;2023-04-07T05:08:17;13.30;;;8.60;;
3589;SDS011;1809;48.470;9.226;2023-04-07T05:10:43;23.80;;;10.70;;
3589;SDS011;1809;48.470;9.226;2023-04-07T05:13:08;17.27;;;9.37;;
3589;SDS011;1809;48.470;9.226;2023-04-07T05:15:33;14.60;;;8.87;;
3589;SDS011;1809;48.470;9.226;2023-04-07T05:17:59;13.03;;;9.23;;
3589;SDS011;1809;48.470;9.226;2023-04-07T05:20:24;13.23;;;9.60;;
3589;SDS011;1809;48.470;9.226;2023-04-07T05:22:49;12.80;;;9.03;;
3589;SDS011;1809;48.470;9.226;2023-04-07T05:25:15;14.30;;;9.50;;
3589;SDS011;1809;48.470;9.226;2023-04-07T05:27:40;14.60;;;10.10;;
3589;SDS011;1809;48.470;9.226;2023-04-07T05:30:06;19.73;;;12.00;;
3589;SDS011;1809;48.470;9.226;2023-04-07T05:32:31;15.60;;;10.10;;
3589;SDS011;1809;48.470;9.226;2023-04-07T05:34:57;14.80;;;9.07;;
3589;SDS011;1809;48.470;9.226;2023-04-07T05:37:22;19.00;;;11.00;;
3589;SDS011;1809;48.470;9.226;2023-04-07T05:39:47;15.70;;;11.30;;
3589;SDS011;1809;48.470;9.226;2023-04-07T05:42:13;14.63;;;10.93;;
3589;SDS011;1809;48.470;9.226;2023-04-07T05:44:38;15.43;;;9.20;;
3589;SDS011;1809;48.470;9.226;2023-04-07T05:47:03;16.20;;;9.97;;
3589;SDS011;1809;48.470;9.226;2023-04-07T05:49:32;11.90;;;9.17;;
3589;SDS011;1809;48.470;9.226;2023-04-07T05:51:58;17.00;;;11.07;;
3589;SDS011;1809;48.470;9.226;2023-04-07T05:54:24;14.23;;;9.57;;
3589;SDS011;1809;48.470;9.226;2023-04-07T05:56:49;14.43;;;9.90;;
3589;SDS011;1809;48.470;9.226;2023-04-07T05:59:15;15.97;;;10.87;;
3589;SDS011;1809;48.470;9.226;2023-04-07T06:01:41;16.10;;;10.93;;
3589;SDS011;1809;48.470;9.226;2023-04-07T06:04:06;15.43;;;10.67;;
3589;SDS011;1809;48.470;9.226;2023-04-07T06:06:32;14.70;;;11.23;;
3589;SDS011;1809;48.470;9.226;2023-04-07T06:08:57;15.50;;;10.87;;
3589;SDS011;1809;48.470;9.226;2023-04-07T06:11:22;16.10;;;10.80;;
3589;SDS011;1809;48.470;9.226;2023-04-07T06:13:48;15.03;;;10.60;;
3589;SDS011;1809;48.470;9.226;2023-04-07T06:16:13;17.73;;;10.60;;
3589;SDS011;1809;48.470;9.226;2023-04-07T06:18:39;15.80;;;10.67;;
3589;SDS011;1809;48.470;9.226;2023-04-07T06:21:04;17.83;;;11.10;;
3589;SDS011;1809;48.470;9.226;2023-04-07T06:23:30;16.00;;;11.43;;
3589;SDS011;1809;48.470;9.226;2023-04-07T06:25:55;16.77;;;11.97;;
3589;SDS011;1809;48.470;9.226;2023-04-07T06:28:21;16.77;;;11.83;;
3589;SDS011;1809;48.470;9.226;2023-04-07T06:30:46;20.50;;;12.80;;
3589;SDS011;1809;48.470;9.226;2023-04-07T06:33:11;17.57;;;11.80;;
3589;SDS011;1809;48.470;9.226;2023-04-07T06:35:38;11.20;;;9.13;;
3589;SDS011;1809;48.470;9.226;2023-04-07T06:38:03;17.10;;;9.73;;
3589;SDS011;1809;48.470;9.226;2023-04-07T06:40:32;15.10;;;9.93;;
3589;SDS011;1809;48.470;9.226;2023-04-07T06:42:57;14.23;;;9.53;;
3589;SDS011;1809;48.470;9.226;2023-04-07T06:45:23;14.37;;;9.60;;
3589;SDS011;1809;48.470;9.226;2023-04-07T06:47:48;12.97;;;10.20;;
3589;SDS011;1809;48.470;9.226;2023-04-07T06:50:13;12.87;;;8.70;;
3589;SDS011;1809;48.470;9.226;2023-04-07T06:52:39;14.13;;;9.30;;
3589;SDS011;1809;48.470;9.226;2023-04-07T06:55:04;14.53;;;10.30;;
3589;SDS011;1809;48.470;9.226;2023-04-07T06:57:31;15.90;;;10.30;;
3589;SDS011;1809;48.470;9.226;2023-04-07T06:59:57;16.40;;;11.20;;
3589;SDS011;1809;48.470;9.226;2023-04-07T07:02:22;17.40;;;12.50;;
3589;SDS011;1809;48.470;9.226;2023-04-07T07:04:47;13.43;;;10.30;;
3589;SDS011;1809;48.470;9.226;2023-04-07T07:07:13;12.63;;;9.70;;
3589;SDS011;1809;48.470;9.226;2023-04-07T07:09:38;17.93;;;10.97;;
3589;SDS011;1809;48.470;9.226;2023-04-07T07:12:03;17.40;;;11.47;;
3589;SDS011;1809;48.470;9.226;2023-04-07T07:14:30;13.47;;;10.20;;
3589;SDS011;1809;48.470;9.226;2023-04-07T07:16:55;16.83;;;11.30;;
3589;SDS011;1809;48.470;9.226;2023-04-07T07:19:20;15.50;;;10.93;;
3589;SDS011;1809;48.470;9.226;2023-04-07T07:21:46;15.67;;;11.60;;
3589;SDS011;1809;48.470;9.226;2023-04-07T07:24:11;14.90;;;10.63;;
3589;SDS011;1809;48.470;9.226;2023-04-07T07:26:36;14.40;;;10.60;;
3589;SDS011;1809;48.470;9.226;2023-04-07T07:29:02;15.53;;;10.93;;
3589;SDS011;1809;48.470;9.226;2023-04-07T07:31:27;14.07;;;10.97;;
3589;SDS011;1809;48.470;9.226;2023-04-07T07:33:52;13.17;;;10.50;;
3589;SDS011;1809;48.470;9.226;2023-04-07T07:36:18;14.50;;;10.03;;
3589;SDS011;1809;48.470;9.226;2023-04-07T07:38:43;13.27;;;10.53;;
3589;SDS011;1809;48.470;9.226;2023-04-07T07:41:09;14.27;;;10.07;;
3589;SDS011;1809;48.470;9.226;2023-04-07T07:43:34;14.50;;;10.83;;
3589;SDS011;1809;48.470;9.226;2023-04-07T07:46:01;11.33;;;9.93;;
3589;SDS011;1809;48.470;9.226;2023-04-07T07:48:26;14.63;;;10.70;;
3589;SDS011;1809;48.470;9.226;2023-04-07T07:50:51;14.40;;;10.73;;
3589;SDS011;1809;48.470;9.226;2023-04-07T07:53:17;11.80;;;10.53;;
3589;SDS011;1809;48.470;9.226;2023-04-07T07:55:42;14.50;;;10.90;;
3589;SDS011;1809;48.470;9.226;2023-04-07T07:58:08;9.73;;;8.43;;
3589;SDS011;1809;48.470;9.226;2023-04-07T08:00:33;10.07;;;8.97;;
3589;SDS011;1809;48.470;9.226;2023-04-07T08:02:58;12.10;;;9.27;;
3589;SDS011;1809;48.470;9.226;2023-04-07T08:05:24;12.10;;;9.40;;
3589;SDS011;1809;48.470;9.226;2023-04-07T08:07:50;15.60;;;9.40;;
3589;SDS011;1809;48.470;9.226;2023-04-07T08:10:16;9.20;;;8.17;;
3589;SDS011;1809;48.470;9.226;2023-04-07T08:12:44;11.83;;;8.50;;
3589;SDS011;1809;48.470;9.226;2023-04-07T08:15:09;9.67;;;7.90;;
3589;SDS011;1809;48.470;9.226;2023-04-07T08:17:35;9.50;;;7.90;;
3589;SDS011;1809;48.470;9.226;2023-04-07T08:20:00;10.40;;;8.73;;
3589;SDS011;1809;48.470;9.226;2023-04-07T08:22:27;8.73;;;6.43;;
3589;SDS011;1809;48.470;9.226;2023-04-07T08:24:53;7.00;;;6.13;;
3589;SDS011;1809;48.470;9.226;2023-04-07T08:27:18;6.40;;;5.80;;
3589;SDS011;1809;48.470;9.226;2023-04-07T08:29:45;6.33;;;5.53;;
3589;SDS011;1809;48.470;9.226;2023-04-07T08:32:10;6.57;;;5.87;;
3589;SDS011;1809;48.470;9.226;2023-04-07T08:34:36;6.90;;;6.20;;
3589;SDS011;1809;48.470;9.226;2023-04-07T08:37:01;7.40;;;6.00;;
3589;SDS011;1809;48.470;9.226;2023-04-07T08:39:26;14.50;;;5.73;;
3589;SDS011;1809;48.470;9.226;2023-04-07T08:41:52;5.67;;;5.07;;
3589;SDS011;1809;48.470;9.226;2023-04-07T08:44:19;6.60;;;5.50;;
3589;SDS011;1809;48.470;9.226;2023-04-07T08:46:47;11.20;;;6.33;;
3589;SDS011;1809;48.470;9.226;2023-04-07T08:49:15;11.30;;;4.90;;
3589;SDS011;1809;48.470;9.226;2023-04-07T08:51:45;8.73;;;4.43;;
3589;SDS011;1809;48.470;9.226;2023-04-07T08:54:12;10.13;;;4.50;;
3589;SDS011;1809;48.470;9.226;2023-04-07T08:56:40;11.60;;;4.30;;
3589;SDS011;1809;48.470;9.226;2023-04-07T08:59:06;5.27;;;4.80;;
3589;SDS011;1809;48.470;9.226;2023-04-07T09:01:34;5.97;;;4.90;;
3589;SDS011;1809;48.470;9.226;2023-04-07T09:04:01;6.50;;;4.53;;
3589;SDS011;1809;48.470;9.226;2023-04-07T09:06:30;6.93;;;5.93;;
3589;SDS011;1809;48.470;9.226;2023-04-07T09:08:57;6.67;;;5.40;;
3589;SDS011;1809;48.470;9.226;2023-04-07T09:11:23;5.80;;;5.30;;
3589;SDS011;1809;48.470;9.226;2023-04-07T09:13:48;5.23;;;4.83;;
3589;SDS011;1809;48.470;9.226;2023-04-07T09:16:14;8.93;;;4.43;;
3589;SDS011;1809;48.470;9.226;2023-04-07T09:18:40;6.03;;;4.70;;
3589;SDS011;1809;48.470;9.226;2023-04-07T09:21:06;4.40;;;4.00;;
3589;SDS011;1809;48.470;9.226;2023-04-07T09:23:41;6.10;;;5.17;;
3589;SDS011;1809;48.470;9.226;2023-04-07T09:26:23;7.37;;;4.83;;
3589;SDS011;1809;48.470;9.226;2023-04-07T09:28:51;5.80;;;4.87;;
3589;SDS011;1809;48.470;9.226;2023-04-07T09:31:22;7.30;;;4.50;;
3589;SDS011;1809;48.470;9.226;2023-04-07T09:33:50;16.77;;;11.07;;
3589;SDS011;1809;48.470;9.226;2023-04-07T09:36:16;9.63;;;5.60;;
3589;SDS011;1809;48.470;9.226;2023-04-07T09:38:42;8.40;;;4.63;;
3589;SDS011;1809;48.470;9.226;2023-04-07T09:41:09;8.73;;;4.03;;
3589;SDS011;1809;48.470;9.226;2023-04-07T09:43:40;5.60;;;5.03;;
3589;SDS011;1809;48.470;9.226;2023-04-07T09:46:18;4.93;;;4.40;;
3589;SDS011;1809;48.470;9.226;2023-04-07T09:48:44;9.90;;;6.90;;
3589;SDS011;1809;48.470;9.226;2023-04-07T09:51:14;8.87;;;6.97;;
3589;SDS011;1809;48.470;9.226;2023-04-07T09:53:47;6.90;;;5.50;;
3589;SDS011;1809;48.470;9.226;2023-04-07T09:56:14;4.87;;;4.37;;
3589;SDS011;1809;48.470;9.226;2023-04-07T09:58:42;4.57;;;3.90;;
3589;SDS011;1809;48.470;9.226;2023-04-07T10:01:09;5.30;;;2.80;;
3589;SDS011;1809;48.470;9.226;2023-04-07T10:03:35;4.60;;;3.40;;
3589;SDS011;1809;48.470;9.226;2023-04-07T10:06:02;3.93;;;3.63;;
3589;SDS011;1809;48.470;9.226;2023-04-07T10:08:29;7.00;;;4.70;;
3589;SDS011;1809;48.470;9.226;2023-04-07T10:10:56;5.50;;;3.73;;
3589;SDS011;1809;48.470;9.226;2023-04-07T10:13:23;4.10;;;3.10;;
3589;SDS011;1809;48.470;9.226;2023-04-07T10:15:50;3.20;;;2.90;;
3589;SDS011;1809;48.470;9.226;2023-04-07T10:18:17;3.50;;;3.20;;
3589;SDS011;1809;48.470;9.226;2023-04-07T10:20:45;9.00;;;2.80;;
3589;SDS011;1809;48.470;9.226;2023-04-07T10:23:15;3.17;;;2.50;;
3589;SDS011;1809;48.470;9.226;2023-04-07T10:25:49;3.77;;;2.60;;
3589;SDS011;1809;48.470;9.226;2023-04-07T10:28:18;5.57;;;2.77;;
3589;SDS011;1809;48.470;9.226;2023-04-07T10:30:46;5.00;;;3.10;;
3589;SDS011;1809;48.470;9.226;2023-04-07T10:33:12;3.47;;;3.17;;
3589;SDS011;1809;48.470;9.226;2023-04-07T10:38:32;4.20;;;2.70;;
3589;SDS011;1809;48.470;9.226;2023-04-07T10:40:58;5.23;;;2.80;;
3589;SDS011;1809;48.470;9.226;2023-04-07T10:43:36;4.60;;;2.80;;
3589;SDS011;1809;48.470;9.226;2023-04-07T10:46:03;3.47;;;2.90;;
3589;SDS011;1809;48.470;9.226;2023-04-07T10:48:29;4.30;;;3.63;;
3589;SDS011;1809;48.470;9.226;2023-04-07T10:53:28;7.00;;;3.10;;
3589;SDS011;1809;48.470;9.226;2023-04-07T10:55:53;6.33;;;3.40;;
3589;SDS011;1809;48.470;9.226;2023-04-07T10:58:29;3.50;;;3.20;;
3589;SDS011;1809;48.470;9.226;2023-04-07T11:03:27;2.50;;;2.30;;
3589;SDS011;1809;48.470;9.226;2023-04-07T11:06:03;2.43;;;2.23;;
3589;SDS011;1809;48.470;9.226;2023-04-07T11:08:40;4.40;;;2.73;;
3589;SDS011;1809;48.470;9.226;2023-04-07T11:11:07;5.27;;;2.50;;
3589;SDS011;1809;48.470;9.226;2023-04-07T11:13:43;5.17;;;3.60;;
3589;SDS011;1809;48.470;9.226;2023-04-07T11:16:11;3.63;;;2.60;;
3589;SDS011;1809;48.470;9.226;2023-04-07T11:18:37;2.60;;;2.50;;
3589;SDS011;1809;48.470;9.226;2023-04-07T11:21:04;3.17;;;2.47;;
3589;SDS011;1809;48.470;9.226;2023-04-07T11:23:36;2.70;;;2.50;;
3589;SDS011;1809;48.470;9.226;2023-04-07T11:26:10;4.20;;;2.80;;
3589;SDS011;1809;48.470;9.226;2023-04-07T11:28:46;3.60;;;2.60;;
3589;SDS011;1809;48.470;9.226;2023-04-07T11:31:23;4.83;;;1.93;;
3589;SDS011;1809;48.470;9.226;2023-04-07T11:36:29;3.23;;;1.90;;
3589;SDS011;1809;48.470;9.226;2023-04-07T11:38:56;2.97;;;2.67;;
3589;SDS011;1809;48.470;9.226;2023-04-07T11:41:22;3.57;;;2.60;;
3589;SDS011;1809;48.470;9.226;2023-04-07T11:43:48;7.30;;;4.20;;
3589;SDS011;1809;48.470;9.226;2023-04-07T11:46:28;3.53;;;2.93;;
3589;SDS011;1809;48.470;9.226;2023-04-07T11:48:53;5.93;;;3.70;;
3589;SDS011;1809;48.470;9.226;2023-04-07T11:51:19;3.00;;;2.73;;
3589;SDS011;1809;48.470;9.226;2023-04-07T11:53:52;4.50;;;3.37;;
3589;SDS011;1809;48.470;9.226;2023-04-07T11:56:19;3.73;;;3.43;;
3589;SDS011;1809;48.470;9.226;2023-04-07T11:58:53;3.83;;;2.83;;
3589;SDS011;1809;48.470;9.226;2023-04-07T12:01:19;3.00;;;2.80;;
3589;SDS011;1809;48.470;9.226;2023-04-07T12:06:14;3.53;;;3.23;;
3589;SDS011;1809;48.470;9.226;2023-04-07T12:08:53;3.70;;;3.40;;
3589;SDS011;1809;48.470;9.226;2023-04-07T12:11:18;7.10;;;2.27;;
3589;SDS011;1809;48.470;9.226;2023-04-07T12:13:43;6.17;;;2.67;;
3589;SDS011;1809;48.470;9.226;2023-04-07T12:16:09;3.63;;;2.70;;
3589;SDS011;1809;48.470;9.226;2023-04-07T12:18:34;4.07;;;2.20;;
3589;SDS011;1809;48.470;9.226;2023-04-07T12:21:00;4.07;;;1.80;;
3589;SDS011;1809;48.470;9.226;2023-04-07T12:23:25;1.50;;;1.40;;
3589;SDS011;1809;48.470;9.226;2023-04-07T12:25:51;2.07;;;1.50;;
3589;SDS011;1809;48.470;9.226;2023-04-07T12:28:16;3.63;;;1.60;;
3589;SDS011;1809;48.470;9.226;2023-04-07T12:30:42;2.40;;;1.30;;
3589;SDS011;1809;48.470;9.226;2023-04-07T12:33:07;2.20;;;2.07;;
3589;SDS011;1809;48.470;9.226;2023-04-07T12:35:32;2.00;;;1.90;;
3589;SDS011;1809;48.470;9.226;2023-04-07T12:37:58;2.30;;;1.47;;
3589;SDS011;1809;48.470;9.226;2023-04-07T12:40:23;2.83;;;1.33;;
3589;SDS011;1809;48.470;9.226;2023-04-07T12:42:49;1.80;;;1.70;;
3589;SDS011;1809;48.470;9.226;2023-04-07T12:45:14;2.33;;;2.00;;
3589;SDS011;1809;48.470;9.226;2023-04-07T12:47:40;2.00;;;1.90;;
3589;SDS011;1809;48.470;9.226;2023-04-07T12:50:06;2.60;;;1.60;;
3589;SDS011;1809;48.470;9.226;2023-04-07T12:52:32;1.97;;;1.77;;
3589;SDS011;1809;48.470;9.226;2023-04-07T12:54:57;2.00;;;1.23;;
3589;SDS011;1809;48.470;9.226;2023-04-07T12:57:23;1.97;;;1.70;;
3589;SDS011;1809;48.470;9.226;2023-04-07T12:59:49;1.50;;;1.40;;
3589;SDS011;1809;48.470;9.226;2023-04-07T13:02:14;2.67;;;2.10;;
3589;SDS011;1809;48.470;9.226;2023-04-07T13:04:42;1.93;;;1.83;;
3589;SDS011;1809;48.470;9.226;2023-04-07T13:07:10;2.03;;;1.60;;
3589;SDS011;1809;48.470;9.226;2023-04-07T13:09:36;2.10;;;1.87;;
3589;SDS011;1809;48.470;9.226;2023-04-07T13:12:01;1.50;;;1.40;;
3589;SDS011;1809;48.470;9.226;2023-04-07T13:14:27;2.60;;;2.00;;
3589;SDS011;1809;48.470;9.226;2023-04-07T13:16:52;1.40;;;1.30;;
3589;SDS011;1809;48.470;9.226;2023-04-07T13:19:17;1.20;;;1.20;;
3589;SDS011;1809;48.470;9.226;2023-04-07T13:21:42;6.10;;;1.33;;
3589;SDS011;1809;48.470;9.226;2023-04-07T13:24:08;1.53;;;1.43;;
3589;SDS011;1809;48.470;9.226;2023-04-07T13:26:33;2.03;;;1.13;;
3589;SDS011;1809;48.470;9.226;2023-04-07T13:28:59;1.70;;;1.47;;
3589;SDS011;1809;48.470;9.226;2023-04-07T13:31:24;1.67;;;1.57;;
3589;SDS011;1809;48.470;9.226;2023-04-07T13:33:49;3.53;;;2.33;;
3589;SDS011;1809;48.470;9.226;2023-04-07T13:36:15;1.90;;;1.43;;
3589;SDS011;1809;48.470;9.226;2023-04-07T13:38:40;1.93;;;1.40;;
3589;SDS011;1809;48.470;9.226;2023-04-07T13:41:06;1.43;;;1.20;;
3589;SDS011;1809;48.470;9.226;2023-04-07T13:43:32;1.33;;;1.10;;
3589;SDS011;1809;48.470;9.226;2023-04-07T13:45:57;3.63;;;1.10;;
3589;SDS011;1809;48.470;9.226;2023-04-07T13:48:22;3.70;;;1.20;;
3589;SDS011;1809;48.470;9.226;2023-04-07T13:50:48;1.70;;;1.30;;
3589;SDS011;1809;48.470;9.226;2023-04-07T13:53:13;3.90;;;2.50;;
3589;SDS011;1809;48.470;9.226;2023-04-07T13:55:38;1.90;;;1.40;;
3589;SDS011;1809;48.470;9.226;2023-04-07T13:58:04;3.73;;;1.83;;
3589;SDS011;1809;48.470;9.226;2023-04-07T14:00:30;1.93;;;1.70;;
3589;SDS011;1809;48.470;9.226;2023-04-07T14:02:55;1.80;;;1.67;;
3589;SDS011;1809;48.470;9.226;2023-04-07T14:05:21;2.40;;;1.67;;
3589;SDS011;1809;48.470;9.226;2023-04-07T14:07:47;1.33;;;1.23;;
3589;SDS011;1809;48.470;9.226;2023-04-07T14:10:13;1.40;;;1.30;;
3589;SDS011;1809;48.470;9.226;2023-04-07T14:12:38;1.87;;;1.77;;
3589;SDS011;1809;48.470;9.226;2023-04-07T14:15:04;2.30;;;2.07;;
3589;SDS011;1809;48.470;9.226;2023-04-07T14:17:29;2.87;;;1.70;;
3589;SDS011;1809;48.470;9.226;2023-04-07T14:19:55;4.90;;;2.90;;
3589;SDS011;1809;48.470;9.226;2023-04-07T14:22:20;2.00;;;1.90;;
3589;SDS011;1809;48.470;9.226;2023-04-07T14:24:45;3.30;;;1.53;;
3589;SDS011;1809;48.470;9.226;2023-04-07T14:27:11;2.30;;;2.07;;
3589;SDS011;1809;48.470;9.226;2023-04-07T14:29:36;1.63;;;1.53;;
3589;SDS011;1809;48.470;9.226;2023-04-07T14:32:02;1.63;;;1.53;;
3589;SDS011;1809;48.470;9.226;2023-04-07T14:34:27;2.70;;;1.50;;
3589;SDS011;1809;48.470;9.226;2023-04-07T14:36:53;2.10;;;1.43;;
3589;SDS011;1809;48.470;9.226;2023-04-07T14:39:20;1.90;;;1.80;;
3589;SDS011;1809;48.470;9.226;2023-04-07T14:41:49;2.33;;;1.97;;
3589;SDS011;1809;48.470;9.226;2023-04-07T14:44:14;1.50;;;1.40;;
3589;SDS011;1809;48.470;9.226;2023-04-07T14:46:40;1.37;;;1.27;;
3589;SDS011;1809;48.470;9.226;2023-04-07T14:49:06;4.20;;;1.43;;
3589;SDS011;1809;48.470;9.226;2023-04-07T14:51:32;2.40;;;1.70;;
3589;SDS011;1809;48.470;9.226;2023-04-07T14:53:58;1.40;;;1.30;;
3589;SDS011;1809;48.470;9.226;2023-04-07T14:56:23;1.63;;;1.40;;
3589;SDS011;1809;48.470;9.226;2023-04-07T14:58:49;2.07;;;1.20;;
3589;SDS011;1809;48.470;9.226;2023-04-07T15:01:15;2.00;;;1.10;;
3589;SDS011;1809;48.470;9.226;2023-04-07T15:03:41;1.77;;;1.20;;
3589;SDS011;1809;48.470;9.226;2023-04-07T15:06:08;2.43;;;2.23;;
3589;SDS011;1809;48.470;9.226;2023-04-07T15:08:34;1.87;;;1.77;;
3589;SDS011;1809;48.470;9.226;2023-04-07T15:11:02;2.53;;;1.50;;
3589;SDS011;1809;48.470;9.226;2023-04-07T15:13:28;2.60;;;1.40;;
3589;SDS011;1809;48.470;9.226;2023-04-07T15:15:54;1.30;;;1.20;;
3589;SDS011;1809;48.470;9.226;2023-04-07T15:18:19;1.60;;;1.43;;